Latest Weather Observations for Port Hedland

IDW60801

Issued at 8:02 pm WST Thursday 29 January 2015 (issued every 30 minutes, with the page automatically refreshed every 10 minutes)

About weather observations | Map of weather stations | Latest weather observations for WA | Other Formats
Station Details ID: 004032 Name: PORT HEDLAND AIRPORT Lat: -20.37 Lon: 118.63 Height: 6.4 m
Data from the previous 72 hours. | See also: Recent months at Port Hedland
Date/Time
WST
Temp
°C
App
Temp
°C
Dew
Point
Rel
Hum
%
Delta-T
°C
Wind Press
QNH
hPa
Press
MSL
hPa
Rain
since 9 am
mm
Dir
 
Spd
km/h
Gust
km/h
Spd
kts
Gust
kts
29/08:00pm 27.5 28.2 22.3 73 3.5 WNW 22 28 12 15 1005.9 - 0.0
29/07:30pm 27.8 28.5 22.2 71 3.8 WNW 22 28 12 15 1005.6 - 0.0
29/07:00pm 27.9 28.6 22.3 71 3.8 WNW 22 28 12 15 1005.0 - 0.0
29/06:30pm 28.5 28.2 21.8 67 4.5 WNW 26 32 14 17 1004.7 - 0.0
29/06:00pm 29.6 29.5 22.2 64 5.0 WNW 26 33 14 18 1004.2 1004.1 0.0
29/05:30pm 29.9 28.8 21.8 62 5.5 NW 30 37 16 20 1003.8 - 0.0
29/05:00pm 30.5 28.7 21.6 59 6.0 NW 33 43 18 23 1003.6 - 0.0
29/04:30pm 31.0 29.1 21.0 55 6.7 NW 32 43 17 23 1003.5 - 0.0
29/04:00pm 31.5 29.8 21.4 55 6.8 NW 32 43 17 23 1003.9 - 0.0
29/03:30pm 31.7 30.5 21.5 54 6.9 NW 30 41 16 22 1004.2 - 0.0
29/03:00pm 31.8 30.5 21.4 54 7.0 NW 30 39 16 21 1004.4 1004.3 0.0
29/02:30pm 32.0 30.8 21.5 53 7.1 NW 30 43 16 23 1004.7 - 0.0
29/02:00pm 32.2 31.0 21.6 53 7.2 NW 30 39 16 21 1005.0 - 0.0
29/01:30pm 31.9 30.4 20.3 50 7.7 NW 28 37 15 20 1005.5 - 0.0
29/01:00pm 31.5 30.6 20.6 52 7.3 NW 26 37 14 20 1005.9 - 0.0
29/12:30pm 31.8 31.1 20.2 50 7.7 NW 24 33 13 18 1006.3 - 0.0
29/12:00pm 32.2 31.5 20.3 49 7.9 NW 24 33 13 18 1006.5 1006.4 0.0
29/11:30am 31.1 31.1 20.1 52 7.3 NNW 20 24 11 13 1007.0 - 0.0
29/11:00am 31.8 31.1 20.2 50 7.7 NNW 24 32 13 17 1007.2 - 0.0
29/10:30am 30.8 31.5 20.4 54 6.9 NNW 17 24 9 13 1007.6 - 0.0
29/10:00am 30.2 31.0 20.7 56 6.3 N 17 26 9 14 1007.7 - 0.0
29/09:30am 30.9 31.8 20.9 55 6.7 NNW 17 26 9 14 1008.1 - 0.0
29/08:30am 29.5 30.8 20.9 60 5.7 NNW 15 20 8 11 1008.1 - 0.0
29/08:00am 28.7 30.6 21.4 64 4.9 WNW 13 19 7 10 1008.0 - 0.0
29/07:00am 27.2 30.7 21.8 72 3.6 SSE 6 9 3 5 1007.8 - 0.0
29/06:30am 25.2 29.6 21.4 79 2.5 CALM 0 0 0 0 1007.0 - 0.0
29/05:30am 23.5 27.6 20.7 84 1.8 CALM 0 0 0 0 1005.9 - 0.0
29/05:00am 23.4 26.2 20.8 85 1.7 W 7 11 4 6 1005.4 - 0.0
29/04:30am 24.1 26.2 20.9 82 2.1 WSW 11 13 6 7 1005.1 - 0.0
29/04:00am 24.2 26.0 21.2 83 2.0 W 13 15 7 8 1005.0 - 0.0
29/03:30am 23.9 25.7 21.2 85 1.8 W 13 15 7 8 1004.9 - 0.0
29/03:00am 23.9 26.0 21.0 84 1.9 WSW 11 13 6 7 1004.9 1004.8 0.0
29/02:30am 24.3 26.1 21.1 82 2.1 WSW 13 13 7 7 1004.8 - 0.0
29/02:00am 24.6 26.5 21.4 82 2.1 WSW 13 15 7 8 1004.8 - 0.0
29/01:30am 25.2 26.8 21.4 79 2.5 WSW 15 17 8 9 1005.1 - 0.0
29/01:00am 25.8 27.1 21.6 77 2.8 W 17 20 9 11 1005.2 - 0.0
29/12:30am 25.8 28.0 21.9 79 2.6 W 13 17 7 9 1005.7 - 0.0
29/12:00am 26.2 28.0 21.9 77 2.9 W 15 19 8 10 1005.8 1005.7 0.0
 
Date/Time
WST
Temp
°C
App
Temp
°C
Dew
Point
Rel
Hum
%
Delta-T
°C
Wind Press
QNH
hPa
Press
MSL
hPa
Rain
since 9 am
mm
Dir
 
Spd
km/h
Gust
km/h
Spd
kts
Gust
kts
28/11:30pm 26.4 27.5 21.9 76 3.0 W 19 22 10 12 1005.9 - 0.0
28/11:00pm 26.7 27.6 21.9 75 3.2 W 20 30 11 16 1006.1 - 0.0
28/10:30pm 26.7 28.3 22.1 76 3.1 W 17 24 9 13 1006.2 - 0.0
28/10:00pm 26.7 27.8 21.9 75 3.2 WNW 19 26 10 14 1005.9 - 0.0
28/09:30pm 26.8 27.7 22.0 75 3.2 NW 20 26 11 14 1005.8 - 0.0
28/09:00pm 27.0 27.2 22.1 74 3.3 WNW 24 32 13 17 1005.6 1005.5 0.0
28/08:30pm 27.1 27.3 22.0 73 3.4 WNW 24 30 13 16 1005.5 - 0.0
28/08:00pm 27.2 27.2 21.7 72 3.7 WNW 24 30 13 16 1005.2 - 0.0
28/07:30pm 27.4 27.4 21.7 71 3.8 NW 24 30 13 16 1005.1 - 0.0
28/07:00pm 27.7 27.6 21.4 68 4.2 NW 24 32 13 17 1005.1 - 0.0
28/06:30pm 28.4 27.6 20.9 64 5.0 NW 26 35 14 19 1004.8 - 0.0
28/06:00pm 29.3 27.8 20.9 60 5.6 NW 30 37 16 20 1004.5 1004.4 0.0
28/05:30pm 29.8 28.2 20.8 58 6.0 NW 30 39 16 21 1004.2 - 0.0
28/05:00pm 30.6 29.9 21.1 57 6.4 NW 26 33 14 18 1003.9 - 0.0
28/04:30pm 30.9 29.8 21.1 56 6.6 NW 28 35 15 19 1004.0 - 0.0
28/04:00pm 31.2 29.9 21.4 56 6.6 NW 30 39 16 21 1004.1 - 0.0
28/03:30pm 31.1 30.6 21.5 56 6.5 NW 26 35 14 19 1004.4 - 0.0
28/03:00pm 31.3 31.2 21.4 55 6.7 NNW 24 35 13 19 1004.6 1004.5 0.0
28/02:30pm 30.9 30.7 21.2 56 6.5 N 24 35 13 19 1004.9 - 0.0
28/02:00pm 31.6 31.4 21.2 54 7.0 N 24 37 13 20 1005.0 - 0.0
28/01:30pm 31.0 30.8 21.2 56 6.6 N 24 33 13 18 1005.2 - 0.0
28/01:00pm 31.1 30.8 21.1 55 6.7 NNW 24 33 13 18 1005.4 - 0.0
28/12:30pm 31.0 31.1 21.2 56 6.6 NNW 22 33 12 18 1005.6 - 0.0
28/12:00pm 31.5 32.1 21.1 54 7.0 NW 19 30 10 16 1006.0 1005.9 0.0
28/11:30am 31.8 32.0 21.3 53 7.1 NNW 22 32 12 17 1006.4 - 0.0
28/11:00am 31.5 32.0 21.2 54 6.9 NNW 20 28 11 15 1006.7 - 0.0
28/10:30am 32.2 32.6 21.0 51 7.5 NNW 20 28 11 15 1007.1 - 0.0
28/10:00am 30.4 30.6 20.6 55 6.5 NW 20 28 11 15 1007.3 - 0.0
28/09:30am 30.6 31.0 20.7 55 6.6 NW 19 28 10 15 1007.6 - 0.0
28/09:00am 28.9 30.6 20.9 62 5.3 NW 13 20 7 11 1007.6 1007.5 0.0
28/08:30am 29.1 29.6 20.1 58 5.9 NW 17 24 9 13 1007.7 - 0.0
28/08:00am 29.0 30.3 20.2 59 5.8 W 13 20 7 11 1007.5 - 0.0
28/07:30am 28.1 29.2 20.5 63 5.0 W 15 20 8 11 1007.5 - 0.0
28/07:00am 27.2 29.2 20.7 67 4.3 W 11 13 6 7 1007.1 - 0.0
28/06:30am 25.6 28.0 20.9 75 3.1 WSW 9 11 5 6 1006.8 - 0.0
28/06:00am 24.1 26.1 20.7 81 2.2 W 11 13 6 7 1006.3 1006.2 0.0
28/05:30am 24.5 26.1 20.7 79 2.5 W 13 15 7 8 1005.9 - 0.0
28/05:00am 24.6 25.9 20.8 79 2.5 W 15 19 8 10 1005.5 - 0.0
28/04:30am 25.1 26.4 20.8 77 2.8 W 15 19 8 10 1005.1 - 0.0
28/04:00am 25.2 26.0 20.6 75 3.0 W 17 20 9 11 1005.1 - 0.0
28/03:30am 25.2 26.0 20.6 75 3.0 W 17 20 9 11 1005.2 - 0.0
28/03:00am 25.1 26.8 21.0 78 2.7 W 13 15 7 8 1005.2 1005.1 0.0
28/02:30am 24.9 26.7 21.1 79 2.5 W 13 17 7 9 1005.0 - 0.0
28/02:00am 24.9 27.1 21.1 79 2.5 W 11 15 6 8 1005.2 - 0.0
28/01:30am 25.4 26.9 21.2 77 2.8 W 15 19 8 10 1005.3 - 0.0
28/01:00am 25.6 27.2 21.4 77 2.8 W 15 19 8 10 1005.6 - 0.0
28/12:30am 25.9 26.6 21.2 75 3.1 WNW 19 22 10 12 1005.7 - 0.0
28/12:00am 25.8 27.0 21.4 76 2.9 WNW 17 20 9 11 1006.0 1005.9 0.0
 
Date/Time
WST
Temp
°C
App
Temp
°C
Dew
Point
Rel
Hum
%
Delta-T
°C
Wind Press
QNH
hPa
Press
MSL
hPa
Rain
since 9 am
mm
Dir
 
Spd
km/h
Gust
km/h
Spd
kts
Gust
kts
27/11:30pm 26.2 26.9 21.5 75 3.1 WNW 20 26 11 14 1006.4 - 0.0
27/11:00pm 26.1 27.5 21.8 77 2.9 NW 17 22 9 12 1006.7 - 0.0
27/10:30pm 26.3 27.4 22.0 77 2.9 WNW 19 26 10 14 1006.6 - 0.0
27/10:00pm 26.3 27.5 22.1 77 2.8 NW 19 24 10 13 1006.5 - 0.0
27/09:30pm 26.4 27.6 22.2 78 2.8 NW 19 22 10 12 1006.3 - 0.0
27/09:00pm 26.6 27.8 22.1 76 3.0 WNW 19 24 10 13 1006.3 1006.2 0.0
27/08:30pm 26.8 27.5 22.2 76 3.1 NW 22 28 12 15 1006.0 - 0.0
27/08:00pm 26.9 27.5 22.1 75 3.2 NW 22 28 12 15 1005.8 - 0.0
27/07:30pm 27.1 27.4 22.2 74 3.3 WNW 24 32 13 17 1005.7 - 0.0
27/07:00pm 27.4 27.0 21.7 71 3.8 NW 26 35 14 19 1005.5 - 0.0
27/06:30pm 28.0 27.2 21.7 68 4.2 NW 28 37 15 20 1005.0 - 0.0
27/06:00pm 28.8 27.3 21.8 66 4.7 NW 32 41 17 22 1004.7 1004.6 0.0
27/05:30pm 29.7 28.5 21.5 61 5.5 WNW 30 39 16 21 1004.4 - 0.0
27/05:00pm 30.5 29.1 21.1 57 6.3 NW 30 39 16 21 1004.3 - 0.0
27/04:30pm 30.9 29.5 21.2 56 6.5 NW 30 39 16 21 1004.2 - 0.0
27/04:00pm 31.7 30.4 21.3 54 7.0 WNW 30 37 16 20 1004.1 - 0.0
27/03:30pm 31.1 29.9 20.8 54 6.9 NW 28 35 15 19 1004.4 - 0.0
27/03:00pm 31.5 30.4 21.1 54 7.0 NW 28 41 15 22 1004.7 1004.6 0.0
27/02:30pm 31.6 30.1 20.9 53 7.2 NW 30 41 16 22 1005.0 - 0.0
27/02:00pm 31.9 30.4 20.3 50 7.7 NW 28 37 15 20 1005.1 - 0.0
27/01:30pm 32.5 31.6 20.7 49 7.9 NW 26 35 14 19 1005.7 - 0.0
27/01:00pm 32.1 31.3 20.8 51 7.6 NW 26 37 14 20 1006.0 - 0.0
27/12:30pm 31.9 31.2 20.3 50 7.7 NNW 24 32 13 17 1006.2 - 0.0
27/12:00pm 32.0 32.0 21.0 52 7.4 NW 22 35 12 19 1006.6 1006.5 0.0
27/11:30am 32.1 32.0 20.7 51 7.6 NW 22 32 12 17 1007.0 - 0.0
27/11:00am 31.6 32.2 20.3 51 7.5 NNW 17 26 9 14 1007.4 - 0.0
27/10:30am 31.8 32.2 20.7 51 7.4 NNW 19 32 10 17 1007.6 - 0.0
27/10:00am 30.6 30.9 20.5 54 6.7 N 19 24 10 13 1008.0 - 0.0
27/09:30am 29.8 30.5 20.4 57 6.2 WNW 17 24 9 13 1008.3 - 0.0
27/09:00am 30.9 32.2 20.2 53 7.1 WNW 13 20 7 11 1008.1 1008.0 0.0
27/08:30am 29.0 29.7 20.5 60 5.6 W 17 22 9 12 1008.4 - 0.0
27/08:00am 29.1 30.9 21.2 62 5.3 W 13 20 7 11 1008.3 - 0.0
27/07:30am 28.3 30.2 21.4 66 4.6 WSW 13 19 7 10 1008.3 - 0.0
27/07:00am 27.4 29.4 21.6 70 3.9 WSW 13 17 7 9 1008.1 - 0.0
27/06:30am 26.1 29.1 21.9 77 2.8 SW 9 13 5 7 1007.9 - 0.0
27/06:00am 25.4 28.0 22.0 81 2.3 WSW 11 13 6 7 1007.3 1007.2 0.0
27/05:30am 25.6 29.0 22.0 80 2.4 W 7 7 4 4 1007.0 - 0.0
27/05:00am 26.0 29.1 22.1 79 2.6 WSW 9 11 5 6 1006.7 - 0.0
27/04:30am 26.1 28.7 21.9 77 2.8 W 11 13 6 7 1006.7 - 0.0
27/04:00am 26.7 29.4 22.2 76 3.0 WNW 11 15 6 8 1006.6 - 0.0
27/03:30am 27.1 28.7 22.2 74 3.3 WNW 17 20 9 11 1006.5 - 0.0
27/03:00am 27.7 29.5 22.5 73 3.5 NW 17 26 9 14 1006.5 1006.4 0.0
27/02:30am 27.3 29.0 22.4 74 3.3 NW 17 20 9 11 1006.3 - 0.0
27/02:00am 27.4 29.2 22.5 74 3.3 NW 17 22 9 12 1006.4 - 0.0
27/01:30am 27.8 28.6 22.5 73 3.6 NW 22 30 12 16 1006.4 - 0.0
27/01:00am 27.8 29.1 22.6 73 3.5 NW 20 26 11 14 1006.5 - 0.0
27/12:30am 27.7 30.7 23.3 77 3.0 NW 13 17 7 9 1006.5 - 0.0
27/12:00am 27.2 30.6 23.3 79 2.7 NNW 11 15 6 8 1006.6 1006.5 0.0
 
Date/Time
WST
Temp
°C
App
Temp
°C
Dew
Point
Rel
Hum
%
Delta-T
°C
Wind Press
QNH
hPa
Press
MSL
hPa
Rain
since 9 am
mm
Dir
 
Spd
km/h
Gust
km/h
Spd
kts
Gust
kts
26/11:30pm 27.4 29.8 23.0 77 3.0 WNW 15 17 8 9 1006.8 - 0.0
26/11:00pm 27.5 30.2 23.4 78 2.8 WNW 15 17 8 9 1006.9 - 0.0
26/10:30pm 27.9 30.9 23.4 76 3.1 NW 13 15 7 8 1007.1 - 0.0
26/10:00pm 28.1 31.1 23.4 75 3.2 NW 13 17 7 9 1007.1 - 0.0
26/09:30pm 28.0 30.3 23.5 76 3.1 NW 17 20 9 11 1006.9 - 0.0
26/09:00pm 28.2 30.1 23.4 75 3.3 WNW 19 24 10 13 1006.4 1006.3 0.0
26/08:30pm 28.4 30.2 23.6 75 3.3 WNW 20 26 11 14 1006.1 - 0.0

Other Formats:

Comma delimited format used in spreadsheet applications
http://www.bom.gov.au/fwo/IDW60801/IDW60801.94312.axf

JavaScript Object Notation format (JSON) in row-major order
http://www.bom.gov.au/fwo/IDW60801/IDW60801.94312.json